createdAt,value
2023-02-05T00:00:54.490Z,98504.34
2023-02-05T00:03:22.570Z,98503.09
2023-02-05T00:05:52.060Z,98512.56
2023-02-05T00:08:20.105Z,98500.00
2023-02-05T00:10:52.894Z,98497.50
2023-02-05T00:13:20.969Z,98501.22
2023-02-05T00:15:48.991Z,98496.97
2023-02-05T00:18:17.014Z,98501.00
2023-02-05T00:20:44.986Z,98502.78
2023-02-05T00:23:14.362Z,98497.94
2023-02-05T00:25:42.350Z,98491.63
2023-02-05T00:28:10.416Z,98490.91
2023-02-05T00:30:41.703Z,98488.88
2023-02-05T00:33:09.716Z,98485.03
2023-02-05T00:35:37.763Z,98492.22
2023-02-05T00:38:06.249Z,98485.72
2023-02-05T00:40:35.680Z,98484.50
2023-02-05T00:43:03.688Z,98485.97
2023-02-05T00:45:35.700Z,98487.50
2023-02-05T00:48:04.775Z,98493.44
2023-02-05T00:50:33.835Z,98489.16
2023-02-05T00:53:02.360Z,98497.81
2023-02-05T00:55:30.427Z,98491.47
2023-02-05T00:58:01.130Z,98489.31
2023-02-05T01:00:33.947Z,98485.16
2023-02-05T01:03:02.027Z,98479.44
2023-02-05T01:05:30.700Z,98480.69
2023-02-05T01:07:58.789Z,98474.47
2023-02-05T01:10:26.956Z,98473.19
2023-02-05T01:12:54.988Z,98472.88
2023-02-05T01:15:24.376Z,98475.09
2023-02-05T01:17:52.686Z,98467.16
2023-02-05T01:20:21.727Z,98467.69
2023-02-05T01:22:49.902Z,98466.88
2023-02-05T01:25:18.311Z,98459.56
2023-02-05T01:27:46.508Z,98456.66
2023-02-05T01:30:15.670Z,98461.09
2023-02-05T01:32:45.079Z,98460.16
2023-02-05T01:35:13.344Z,98457.78
2023-02-05T01:37:41.586Z,98452.94
2023-02-05T01:40:15.239Z,98461.78
2023-02-05T01:42:43.933Z,98452.56
2023-02-05T01:45:52.310Z,98446.50
2023-02-05T01:48:28.750Z,98444.03
2023-02-05T01:51:00.526Z,98433.84
2023-02-05T01:53:32.557Z,98435.50
2023-02-05T01:56:03.992Z,98430.56
2023-02-05T01:58:38.352Z,98425.59
2023-02-05T02:01:07.055Z,98427.78
2023-02-05T02:03:37.477Z,98422.56
2023-02-05T02:06:05.983Z,98418.69
2023-02-05T02:08:34.207Z,98414.28
2023-02-05T02:11:05.823Z,98420.88
2023-02-05T02:13:36.722Z,98411.91
2023-02-05T02:16:07.927Z,98413.53
2023-02-05T02:18:39.104Z,98405.72
2023-02-05T02:21:46.048Z,98396.94
2023-02-05T02:25:00.238Z,98390.63
2023-02-05T02:27:47.882Z,98399.16
2023-02-05T02:30:23.778Z,98393.63
2023-02-05T02:33:06.547Z,98398.34
2023-02-05T02:35:46.445Z,98392.56
2023-02-05T02:38:26.505Z,98389.59
2023-02-05T02:40:58.570Z,98392.44
2023-02-05T02:43:36.289Z,98387.66
2023-02-05T02:46:10.340Z,98394.38
2023-02-05T02:48:42.628Z,98394.97
2023-02-05T02:51:13.305Z,98377.50
2023-02-05T02:53:47.368Z,98374.06
2023-02-05T02:56:17.456Z,98374.06
2023-02-05T02:58:51.262Z,98366.91
2023-02-05T03:01:24.541Z,98384.53
2023-02-05T03:03:57.592Z,98375.88
2023-02-05T03:06:27.909Z,98374.09
2023-02-05T03:09:01.025Z,98367.22
2023-02-05T03:11:29.345Z,98375.63
2023-02-05T03:13:59.222Z,98377.94
2023-02-05T03:16:32.823Z,98374.66
2023-02-05T03:19:02.848Z,98375.06
2023-02-05T03:21:36.310Z,98376.41
2023-02-05T03:24:04.974Z,98369.03
2023-02-05T03:26:35.958Z,98369.97
2023-02-05T03:29:31.470Z,98369.81
2023-02-05T03:32:19.628Z,98365.44
2023-02-05T03:35:01.986Z,98358.31
2023-02-05T03:37:42.439Z,98359.69
2023-02-05T03:40:22.207Z,98356.75
2023-02-05T03:43:00.849Z,98349.91
2023-02-05T03:45:49.714Z,98346.75
2023-02-05T03:48:44.669Z,98346.16
2023-02-05T03:51:25.823Z,98347.81
2023-02-05T03:54:08.996Z,98342.16
2023-02-05T03:56:49.764Z,98350.81
2023-02-05T03:59:20.428Z,98348.34
2023-02-05T04:01:54.484Z,98342.03
2023-02-05T04:04:23.339Z,98340.09
2023-02-05T04:06:54.283Z,98335.84
2023-02-05T04:09:23.390Z,98334.00
2023-02-05T04:11:51.655Z,98331.97
2023-02-05T04:14:22.134Z,98328.50
2023-02-05T04:16:50.469Z,98333.72
2023-02-05T04:19:21.969Z,98338.28
2023-02-05T04:21:53.790Z,98337.06
2023-02-05T04:24:22.511Z,98336.88
2023-02-05T04:26:51.900Z,98333.72
2023-02-05T04:29:20.859Z,98340.88
2023-02-05T04:31:54.066Z,98337.44
2023-02-05T04:34:23.549Z,98338.41
2023-02-05T04:36:51.680Z,98343.63
2023-02-05T04:39:19.856Z,98335.91
2023-02-05T04:41:51.552Z,98335.97
2023-02-05T04:44:19.795Z,98345.31
2023-02-05T04:46:47.911Z,98344.16
2023-02-05T04:49:16.193Z,98355.75
2023-02-05T04:51:45.549Z,98350.53
2023-02-05T04:54:13.599Z,98350.34
2023-02-05T04:56:41.656Z,98348.88
2023-02-05T04:59:09.723Z,98347.66
2023-02-05T05:01:37.768Z,98345.97
2023-02-05T05:04:05.934Z,98340.22
2023-02-05T05:06:34.125Z,98343.53
2023-02-05T05:09:03.674Z,98350.53
2023-02-05T05:11:31.928Z,98352.03
2023-02-05T05:14:01.407Z,98360.41
2023-02-05T05:16:29.528Z,98356.88
2023-02-05T05:18:57.590Z,98355.34
2023-02-05T05:21:26.064Z,98357.69
2023-02-05T05:23:54.077Z,98355.22
2023-02-05T05:26:23.457Z,98345.19
2023-02-05T05:28:55.204Z,98342.31
2023-02-05T05:31:24.472Z,98349.72
2023-02-05T05:33:52.964Z,98342.94
2023-02-05T05:36:21.511Z,98341.47
2023-02-05T05:38:49.680Z,98341.63
2023-02-05T05:41:40.107Z,98342.03
2023-02-05T05:44:09.940Z,98343.25
2023-02-05T05:46:38.023Z,98336.94
2023-02-05T05:49:06.056Z,98343.97
2023-02-05T05:51:34.089Z,98342.97
2023-02-05T05:54:02.164Z,98329.38
2023-02-05T05:56:30.201Z,98332.13
2023-02-05T05:58:58.320Z,98327.72
2023-02-05T06:01:27.661Z,98334.47
2023-02-05T06:03:55.707Z,98333.22
2023-02-05T06:06:24.458Z,98332.09
2023-02-05T06:08:52.476Z,98340.91
2023-02-05T06:11:20.553Z,98339.66
2023-02-05T06:13:48.693Z,98342.13
2023-02-05T06:16:17.071Z,98349.44
2023-02-05T06:18:46.517Z,98340.75
2023-02-05T06:21:14.605Z,98345.31
2023-02-05T06:23:42.699Z,98337.88
2023-02-05T06:26:10.785Z,98333.75
2023-02-05T06:28:39.140Z,98335.53
2023-02-05T06:31:07.641Z,98333.38
2023-02-05T06:33:35.893Z,98329.63
2023-02-05T06:36:06.701Z,98332.94
2023-02-05T06:38:34.789Z,98334.75
2023-02-05T06:41:02.922Z,98335.56
2023-02-05T06:43:30.966Z,98342.84
2023-02-05T06:45:59.028Z,98342.13
2023-02-05T06:48:27.182Z,98345.19
2023-02-05T06:50:55.213Z,98350.69
2023-02-05T06:53:24.606Z,98339.38
2023-02-05T06:55:52.698Z,98351.63
2023-02-05T06:58:20.736Z,98337.47
2023-02-05T07:00:48.812Z,98351.66
2023-02-05T07:03:16.882Z,98352.75
2023-02-05T07:05:45.107Z,98361.66
2023-02-05T07:08:13.294Z,98355.94
2023-02-05T07:10:42.705Z,98363.88
2023-02-05T07:13:10.748Z,98373.06
2023-02-05T07:15:38.927Z,98359.50
2023-02-05T07:18:07.525Z,98364.06
2023-02-05T07:20:35.585Z,98353.56
2023-02-05T07:23:03.646Z,98358.53
2023-02-05T07:25:36.258Z,98346.59
2023-02-05T07:28:07.110Z,98352.75
2023-02-05T07:30:35.575Z,98348.66
2023-02-05T07:33:04.625Z,98339.72
2023-02-05T07:35:35.325Z,98335.84
2023-02-05T07:38:03.600Z,98331.75
2023-02-05T07:40:31.720Z,98324.34
2023-02-05T07:42:59.794Z,98329.69
2023-02-05T07:45:29.691Z,98325.28
2023-02-05T07:47:57.796Z,98336.81
2023-02-05T07:50:25.886Z,98329.00
2023-02-05T07:52:54.170Z,98315.53
2023-02-05T07:55:22.281Z,98324.19
2023-02-05T07:57:50.289Z,98314.19
2023-02-05T08:00:18.984Z,98322.00
2023-02-05T08:02:48.528Z,98320.38
2023-02-05T08:05:16.965Z,98325.00
2023-02-05T08:07:45.049Z,98321.56
2023-02-05T08:10:15.552Z,98329.84
2023-02-05T08:12:43.648Z,98336.72
2023-02-05T08:15:12.157Z,98335.75
2023-02-05T08:17:40.286Z,98328.19
2023-02-05T08:20:12.042Z,98329.19
2023-02-05T08:22:42.411Z,98318.19
2023-02-05T08:25:15.095Z,98310.75
2023-02-05T08:27:44.297Z,98319.00
2023-02-05T08:30:17.016Z,98311.16
2023-02-05T08:32:49.628Z,98314.47
2023-02-05T08:35:19.473Z,98303.06
2023-02-05T08:37:47.743Z,98299.34
2023-02-05T08:40:15.933Z,98317.75
2023-02-05T08:42:44.131Z,98314.63
2023-02-05T08:45:12.215Z,98319.56
2023-02-05T08:47:40.854Z,98310.75
2023-02-05T08:50:10.499Z,98301.44
2023-02-05T08:52:40.070Z,98301.69
2023-02-05T08:55:08.515Z,98292.75
2023-02-05T08:57:37.638Z,98287.38
2023-02-05T09:00:07.506Z,98282.56
2023-02-05T09:02:35.697Z,98277.63
2023-02-05T09:05:08.969Z,98266.34
2023-02-05T09:07:43.850Z,98273.22
2023-02-05T09:10:14.385Z,98264.97
2023-02-05T09:12:42.396Z,98262.50
2023-02-05T09:15:11.364Z,98256.44
2023-02-05T09:17:39.430Z,98254.41
2023-02-05T09:20:08.777Z,98249.84
2023-02-05T09:22:37.279Z,98236.78
2023-02-05T09:25:12.064Z,98232.94
2023-02-05T09:27:40.235Z,98227.69
2023-02-05T09:30:09.729Z,98225.47
2023-02-05T09:32:37.811Z,98235.66
2023-02-05T09:35:07.015Z,98234.69
2023-02-05T09:37:35.220Z,98233.75
2023-02-05T09:40:21.254Z,98227.41
2023-02-05T09:43:04.825Z,98229.44
2023-02-05T09:45:40.729Z,98224.91
2023-02-05T09:48:37.088Z,98228.06
2023-02-05T09:51:06.964Z,98219.00
2023-02-05T09:53:43.629Z,98222.16
2023-02-05T09:56:17.219Z,98224.09
2023-02-05T09:58:50.987Z,98220.47
2023-02-05T10:01:25.154Z,98211.81
2023-02-05T10:04:00.636Z,98216.78
2023-02-05T10:07:04.632Z,98214.31
2023-02-05T10:09:54.247Z,98215.41
2023-02-05T10:12:37.269Z,98218.31
2023-02-05T10:15:24.873Z,98220.34
2023-02-05T10:18:12.235Z,98211.38
2023-02-05T10:21:11.974Z,98216.91
2023-02-05T10:24:03.052Z,98212.91
2023-02-05T10:26:40.264Z,98206.44
2023-02-05T10:29:26.492Z,98198.41
2023-02-05T10:32:10.661Z,98199.38
2023-02-05T10:34:53.641Z,98187.13
2023-02-05T10:37:28.735Z,98172.94
2023-02-05T10:39:58.572Z,98175.78
2023-02-05T10:42:33.190Z,98167.78
2023-02-05T10:45:07.412Z,98166.41
2023-02-05T10:48:02.420Z,98164.06
2023-02-05T10:50:44.311Z,98166.91
2023-02-05T10:53:13.580Z,98170.97
2023-02-05T10:55:41.882Z,98171.25
2023-02-05T10:58:37.012Z,98168.13
2023-02-05T11:01:07.055Z,98168.66
2023-02-05T11:03:37.228Z,98166.28
2023-02-05T11:06:11.459Z,98165.19
2023-02-05T11:08:43.743Z,98170.13
2023-02-05T11:11:23.296Z,98162.78
2023-02-05T11:13:56.183Z,98150.53
2023-02-05T11:16:25.870Z,98151.06
2023-02-05T11:19:01.413Z,98146.66
2023-02-05T11:21:52.742Z,98140.44
2023-02-05T11:24:30.329Z,98129.97
2023-02-05T11:27:31.824Z,98122.75
2023-02-05T11:30:37.644Z,98123.16
2023-02-05T11:33:31.201Z,98118.72
2023-02-05T11:36:04.211Z,98115.13
2023-02-05T11:38:44.679Z,98123.50
2023-02-05T11:41:16.788Z,98126.50
2023-02-05T11:43:51.856Z,98123.38
2023-02-05T11:46:22.569Z,98116.47
2023-02-05T11:48:59.351Z,98114.53
2023-02-05T11:51:44.506Z,98099.47
2023-02-05T11:54:24.278Z,98096.72
2023-02-05T11:57:08.555Z,98100.16
2023-02-05T11:59:37.322Z,98102.34
2023-02-05T12:02:34.647Z,98099.72
2023-02-05T12:05:13.300Z,98093.28
2023-02-05T12:07:48.736Z,98100.53
2023-02-05T12:10:26.744Z,98103.84
2023-02-05T12:13:09.906Z,98094.94
2023-02-05T12:15:47.519Z,98085.84
2023-02-05T12:18:28.377Z,98087.78
2023-02-05T12:21:15.212Z,98092.88
2023-02-05T12:24:14.060Z,98083.38
2023-02-05T12:26:45.825Z,98082.66
2023-02-05T12:29:44.574Z,98088.69
2023-02-05T12:32:28.594Z,98082.41
2023-02-05T12:35:13.920Z,98085.50
2023-02-05T12:37:48.755Z,98080.25
2023-02-05T12:40:52.664Z,98082.81
2023-02-05T12:43:38.120Z,98075.69
2023-02-05T12:46:37.088Z,98069.72
2023-02-05T12:49:24.735Z,98071.66
2023-02-05T12:52:09.349Z,98069.72
2023-02-05T12:54:53.198Z,98060.22
2023-02-05T12:57:27.372Z,98058.22
2023-02-05T13:00:03.875Z,98061.34
2023-02-05T13:02:40.823Z,98058.50
2023-02-05T13:05:21.081Z,98055.22
2023-02-05T13:07:57.650Z,98062.09
2023-02-05T13:10:33.164Z,98061.69
2023-02-05T13:13:07.748Z,98058.72
2023-02-05T13:15:41.626Z,98068.25
2023-02-05T13:18:18.979Z,98060.13
2023-02-05T13:21:11.741Z,98070.69
2023-02-05T13:23:59.261Z,98068.06
2023-02-05T13:26:56.828Z,98078.63
2023-02-05T13:29:32.019Z,98068.72
2023-02-05T13:32:15.426Z,98074.13
2023-02-05T13:34:44.831Z,98066.03
2023-02-05T13:37:42.783Z,98070.75
2023-02-05T13:40:46.026Z,98068.88
2023-02-05T13:43:44.704Z,98064.53
2023-02-05T13:46:58.203Z,98061.22
2023-02-05T13:50:12.300Z,98063.41
2023-02-05T13:53:23.122Z,98060.78
2023-02-05T13:56:26.190Z,98065.78
2023-02-05T13:58:57.540Z,98058.84
2023-02-05T14:01:31.807Z,98063.38
2023-02-05T14:04:06.072Z,98063.53
2023-02-05T14:06:38.396Z,98062.63
2023-02-05T14:09:10.019Z,98064.94
2023-02-05T14:11:54.568Z,98057.63
2023-02-05T14:14:29.494Z,98058.44
2023-02-05T14:16:59.886Z,98059.41
2023-02-05T14:19:57.082Z,98060.19
2023-02-05T14:22:42.554Z,98059.88
2023-02-05T14:26:04.991Z,98047.91
2023-02-05T14:28:53.180Z,98057.88
2023-02-05T14:31:49.671Z,98049.50
2023-02-05T14:34:59.910Z,98048.97
2023-02-05T14:37:40.538Z,98052.00
2023-02-05T14:40:29.186Z,98049.66
2023-02-05T14:43:09.978Z,98048.66
2023-02-05T14:45:46.245Z,98053.97
2023-02-05T14:48:25.689Z,98057.50
2023-02-05T14:51:15.200Z,98053.81
2023-02-05T14:53:55.939Z,98055.88
2023-02-05T14:56:31.595Z,98053.13
2023-02-05T14:59:05.665Z,98061.38
2023-02-05T15:01:50.354Z,98058.50
2023-02-05T15:04:34.892Z,98057.09
2023-02-05T15:07:14.084Z,98065.25
2023-02-05T15:09:47.260Z,98066.75
2023-02-05T15:12:36.764Z,98067.69
2023-02-05T15:15:30.744Z,98073.38
2023-02-05T15:18:06.967Z,98071.03
2023-02-05T15:20:39.893Z,98073.81
2023-02-05T15:23:31.923Z,98070.63
2023-02-05T15:26:05.245Z,98074.19
2023-02-05T15:28:37.723Z,98069.94
2023-02-05T15:31:27.808Z,98065.25
2023-02-05T15:34:32.148Z,98071.56
2023-02-05T15:37:06.599Z,98075.00
2023-02-05T15:39:48.551Z,98067.03
2023-02-05T15:42:22.153Z,98068.66
2023-02-05T15:44:50.267Z,98065.25
2023-02-05T15:47:23.050Z,98072.63
2023-02-05T15:49:54.125Z,98069.22
2023-02-05T15:52:26.231Z,98081.59
2023-02-05T15:54:59.192Z,98080.09
2023-02-05T15:57:32.038Z,98073.47
2023-02-05T16:00:02.138Z,98086.25
2023-02-05T16:02:32.623Z,98082.38
2023-02-05T16:05:09.690Z,98082.53
2023-02-05T16:07:43.502Z,98092.16
2023-02-05T16:10:22.055Z,98098.34
2023-02-05T16:13:01.698Z,98094.81
2023-02-05T16:15:37.397Z,98094.97
2023-02-05T16:18:09.291Z,98093.03
2023-02-05T16:20:42.056Z,98099.91
2023-02-05T16:23:26.253Z,98101.03
2023-02-05T16:26:00.405Z,98112.69
2023-02-05T16:28:37.799Z,98115.44
2023-02-05T16:31:08.514Z,98112.63
2023-02-05T16:33:42.002Z,98122.25
2023-02-05T16:36:20.360Z,98123.38
2023-02-05T16:38:53.350Z,98134.22
2023-02-05T16:41:26.484Z,98133.53
2023-02-05T16:43:57.019Z,98140.97
2023-02-05T16:46:28.747Z,98140.72
2023-02-05T16:49:00.061Z,98138.66
2023-02-05T16:51:33.444Z,98149.38
2023-02-05T16:54:03.530Z,98144.41
2023-02-05T16:56:36.662Z,98153.63
2023-02-05T16:59:06.535Z,98154.31
2023-02-05T17:01:40.137Z,98158.84
2023-02-05T17:04:09.063Z,98158.28
2023-02-05T17:06:39.368Z,98167.38
2023-02-05T17:09:07.916Z,98165.16
2023-02-05T17:11:40.126Z,98164.88
2023-02-05T17:14:27.705Z,98164.59
2023-02-05T17:17:03.110Z,98166.53
2023-02-05T17:19:33.717Z,98168.16
2023-02-05T17:22:21.204Z,98169.25
2023-02-05T17:24:51.886Z,98171.00
2023-02-05T17:27:30.121Z,98168.03
2023-02-05T17:30:00.593Z,98172.03
2023-02-05T17:32:30.211Z,98172.00
2023-02-05T17:34:58.353Z,98176.31
2023-02-05T17:37:26.460Z,98169.28
2023-02-05T17:39:55.959Z,98176.84
2023-02-05T17:42:30.122Z,98173.53
2023-02-05T17:44:58.404Z,98176.13
2023-02-05T17:47:26.524Z,98175.19
2023-02-05T17:49:54.705Z,98174.50
2023-02-05T17:52:22.752Z,98175.50
2023-02-05T17:54:50.845Z,98178.38
2023-02-05T17:57:21.563Z,98172.88
2023-02-05T17:59:51.345Z,98191.88
2023-02-05T18:02:19.668Z,98186.66
2023-02-05T18:04:47.840Z,98194.06
2023-02-05T18:07:31.163Z,98195.41
2023-02-05T18:09:59.642Z,98196.25
2023-02-05T18:12:28.339Z,98198.00
2023-02-05T18:14:58.195Z,98205.97
2023-02-05T18:17:27.104Z,98204.47
2023-02-05T18:19:55.270Z,98210.44
2023-02-05T18:22:23.396Z,98210.56
2023-02-05T18:24:51.419Z,98206.31
2023-02-05T18:27:20.080Z,98208.94
2023-02-05T18:29:48.148Z,98213.06
2023-02-05T18:32:17.711Z,98213.06
2023-02-05T18:34:45.838Z,98212.84
2023-02-05T18:37:16.641Z,98215.97
2023-02-05T18:39:44.861Z,98223.78
2023-02-05T18:42:13.524Z,98230.25
2023-02-05T18:44:41.697Z,98215.56
2023-02-05T18:47:11.560Z,98227.94
2023-02-05T18:49:41.224Z,98230.38
2023-02-05T18:52:10.275Z,98235.09
2023-02-05T18:54:38.689Z,98245.41
2023-02-05T18:57:06.977Z,98239.50
2023-02-05T18:59:36.863Z,98240.03
2023-02-05T19:02:05.281Z,98253.28
2023-02-05T19:04:34.009Z,98252.69
2023-02-05T19:07:05.456Z,98261.09
2023-02-05T19:09:34.434Z,98264.25
2023-02-05T19:12:02.668Z,98250.78
2023-02-05T19:14:30.718Z,98263.75
2023-02-05T19:16:58.761Z,98262.75
2023-02-05T19:19:27.264Z,98265.25
2023-02-05T19:21:59.890Z,98266.50
2023-02-05T19:24:31.544Z,98277.06
2023-02-05T19:27:00.028Z,98275.31
2023-02-05T19:29:28.475Z,98272.56
2023-02-05T19:31:57.367Z,98275.03
2023-02-05T19:34:27.753Z,98282.84
2023-02-05T19:36:56.006Z,98280.25
2023-02-05T19:39:24.210Z,98275.97
2023-02-05T19:41:53.845Z,98273.22
2023-02-05T19:44:21.902Z,98273.38
2023-02-05T19:46:50.974Z,98280.09
2023-02-05T19:49:20.656Z,98290.78
2023-02-05T19:51:50.654Z,98295.44
2023-02-05T19:54:21.563Z,98284.03
2023-02-05T19:56:51.169Z,98290.78
2023-02-05T19:59:21.219Z,98295.31
2023-02-05T20:01:49.865Z,98297.94
2023-02-05T20:04:22.283Z,98306.72
2023-02-05T20:06:54.179Z,98308.22
2023-02-05T20:09:22.632Z,98319.72
2023-02-05T20:11:54.411Z,98320.44
2023-02-05T20:14:24.783Z,98324.66
2023-02-05T20:16:53.498Z,98323.16
2023-02-05T20:19:21.940Z,98328.50
2023-02-05T20:21:50.555Z,98332.09
2023-02-05T20:24:18.718Z,98340.00
2023-02-05T20:26:48.829Z,98335.53
2023-02-05T20:29:35.258Z,98333.34
2023-02-05T20:32:05.740Z,98335.34
2023-02-05T20:34:36.036Z,98339.16
2023-02-05T20:37:06.736Z,98340.13
2023-02-05T20:39:38.660Z,98334.78
2023-02-05T20:42:07.046Z,98336.25
2023-02-05T20:44:36.951Z,98330.63
2023-02-05T20:47:08.128Z,98334.72
2023-02-05T20:49:37.119Z,98343.75
2023-02-05T20:52:06.465Z,98349.69
2023-02-05T20:54:35.680Z,98354.00
2023-02-05T20:57:04.111Z,98356.34
2023-02-05T20:59:33.704Z,98359.41
2023-02-05T21:02:02.557Z,98346.91
2023-02-05T21:04:32.388Z,98353.75
2023-02-05T21:07:00.928Z,98361.06
2023-02-05T21:09:29.129Z,98363.69
2023-02-05T21:11:57.255Z,98374.38
2023-02-05T21:14:25.655Z,98376.09
2023-02-05T21:16:53.781Z,98374.31
2023-02-05T21:19:21.878Z,98364.44
2023-02-05T21:21:52.128Z,98374.25
2023-02-05T21:24:20.692Z,98374.69
2023-02-05T21:26:50.258Z,98382.91
2023-02-05T21:29:20.751Z,98388.03
2023-02-05T21:31:51.215Z,98389.34
2023-02-05T21:34:24.985Z,98390.03
2023-02-05T21:36:55.840Z,98394.47
2023-02-05T21:39:25.611Z,98394.09
2023-02-05T21:41:55.167Z,98402.41
2023-02-05T21:44:24.000Z,98401.19
2023-02-05T21:46:53.285Z,98405.72
2023-02-05T21:49:21.772Z,98421.63
2023-02-05T21:51:50.380Z,98419.00
2023-02-05T21:54:25.182Z,98418.88
2023-02-05T21:56:53.785Z,98420.47
2023-02-05T21:59:21.932Z,98421.31
2023-02-05T22:01:50.293Z,98420.94
2023-02-05T22:04:19.073Z,98428.25
2023-02-05T22:06:47.205Z,98429.69
2023-02-05T22:09:16.973Z,98432.28
2023-02-05T22:11:46.753Z,98429.50
2023-02-05T22:14:15.176Z,98435.44
2023-02-05T22:16:43.684Z,98448.69
2023-02-05T22:19:12.556Z,98443.00
2023-02-05T22:21:43.116Z,98452.47
2023-02-05T22:24:19.377Z,98457.47
2023-02-05T22:26:49.562Z,98461.63
2023-02-05T22:29:20.666Z,98459.22
2023-02-05T22:31:52.672Z,98473.09
2023-02-05T22:34:21.768Z,98477.25
2023-02-05T22:36:49.986Z,98473.44
2023-02-05T22:39:18.147Z,98476.19
2023-02-05T22:41:46.275Z,98476.66
2023-02-05T22:44:15.789Z,98479.38
2023-02-05T22:46:45.277Z,98487.06
2023-02-05T22:49:15.681Z,98486.59
2023-02-05T22:51:44.812Z,98493.22
2023-02-05T22:54:15.698Z,98489.41
2023-02-05T22:56:43.980Z,98488.00
2023-02-05T22:59:12.114Z,98491.34
2023-02-05T23:01:41.662Z,98496.28
2023-02-05T23:04:10.448Z,98503.19
2023-02-05T23:06:41.335Z,98501.38
2023-02-05T23:09:13.239Z,98514.06
2023-02-05T23:11:41.602Z,98506.47
2023-02-05T23:14:10.703Z,98510.41
2023-02-05T23:16:43.471Z,98516.13
2023-02-05T23:19:14.700Z,98516.41
2023-02-05T23:21:43.683Z,98521.69
2023-02-05T23:24:12.409Z,98531.53
2023-02-05T23:26:44.303Z,98530.91
2023-02-05T23:29:15.044Z,98524.91
2023-02-05T23:31:44.852Z,98531.22
2023-02-05T23:34:13.820Z,98524.91
2023-02-05T23:36:41.827Z,98516.97
2023-02-05T23:39:10.003Z,98519.47
2023-02-05T23:41:39.661Z,98526.91
2023-02-05T23:44:12.468Z,98531.59
2023-02-05T23:46:41.691Z,98537.31
2023-02-05T23:49:11.842Z,98534.34
2023-02-05T23:51:40.540Z,98543.91
2023-02-05T23:54:11.635Z,98533.00
2023-02-05T23:56:40.144Z,98530.91
2023-02-05T23:59:10.162Z,98532.94
